Time;durP1;ratioP1;P1;durP2;ratioP2;P2;SDS_P1;SDS_P2;PMS_P1;PMS_P2;Temp;Humidity;BMP_temperature;BMP_pressure;BME280_temperature;BME280_humidity;BME280_pressure;Samples;Min_cycle;Max_cycle;Signal;HPM_P1;HPM_P2
2022/12/02 00:02:04;;;;;;;31.77;12.75;;;3.70;99.90;;;;;;4231639;28;20064;-85
2022/12/02 00:04:24;;;;;;;35.95;13.30;;;3.70;99.90;;;;;;4232292;28;20511;-86
2022/12/02 00:06:31;;;;;;;31.90;12.05;;;3.70;99.90;;;;;;4197465;28;20408;-86
2022/12/02 00:08:35;;;;;;;30.70;12.93;;;3.80;99.90;;;;;;4232445;28;20090;-86
2022/12/02 00:10:38;;;;;;;36.78;13.18;;;3.80;99.90;;;;;;4231317;28;20044;-85
2022/12/02 00:12:39;;;;;;;32.65;12.48;;;3.80;99.90;;;;;;4235001;28;20044;-86
2022/12/02 00:14:40;;;;;;;33.80;13.68;;;3.90;99.90;;;;;;4230996;28;20051;-85
2022/12/02 00:16:41;;;;;;;34.08;14.93;;;3.80;99.90;;;;;;4231514;28;20502;-86
2022/12/02 00:18:41;;;;;;;35.85;13.25;;;3.80;99.90;;;;;;4212256;28;20463;-86
2022/12/02 00:20:43;;;;;;;34.50;12.60;;;3.80;99.90;;;;;;4246719;28;20050;-85
2022/12/02 00:22:45;;;;;;;28.70;11.35;;;3.80;99.90;;;;;;4248168;28;20107;-86
2022/12/02 00:24:46;;;;;;;38.40;14.25;;;3.80;99.90;;;;;;4229750;28;20423;-86
2022/12/02 00:26:48;;;;;;;31.50;12.88;;;3.80;99.90;;;;;;4248097;28;20078;-85
2022/12/02 00:28:49;;;;;;;33.15;12.95;;;3.80;99.90;;;;;;4247969;28;20050;-86
2022/12/02 00:30:49;;;;;;;35.38;12.98;;;3.80;99.90;;;;;;4243148;28;20039;-85
2022/12/02 00:32:51;;;;;;;35.30;14.05;;;3.80;99.90;;;;;;4247900;28;20399;-85
2022/12/02 00:34:51;;;;;;;34.90;14.15;;;4.30;99.90;;;;;;4212766;28;20486;-85
2022/12/02 00:36:52;;;;;;;35.10;12.98;;;3.80;99.90;;;;;;4247867;28;20047;-85
2022/12/02 00:38:53;;;;;;;36.22;12.82;;;3.80;99.90;;;;;;4247686;28;20475;-85
2022/12/02 00:40:55;;;;;;;35.13;13.68;;;3.90;99.90;;;;;;4212984;28;20087;-86
2022/12/02 00:46:30;;;;;;;36.28;12.73;;;3.90;99.90;;;;;;4247583;28;20099;-85
2022/12/02 00:47:36;;;;;;;33.40;13.85;;;3.90;99.90;;;;;;4240956;28;20051;-85
2022/12/02 00:49:37;;;;;;;35.38;13.60;;;3.70;99.90;;;;;;4226735;28;20055;-85
2022/12/02 00:51:38;;;;;;;29.45;11.43;;;3.80;99.90;;;;;;4232788;28;20075;-85
2022/12/02 00:53:40;;;;;;;41.38;13.40;;;4.10;99.90;;;;;;4250994;27;20040;-86
2022/12/02 00:55:41;;;;;;;37.13;14.65;;;3.80;99.90;;;;;;4231913;28;20090;-85
2022/12/02 00:57:42;;;;;;;34.65;12.77;;;3.80;99.90;;;;;;4232806;28;20040;-85
2022/12/02 00:59:43;;;;;;;32.40;11.95;;;4.10;99.90;;;;;;4251079;27;20050;-85
2022/12/02 01:01:45;;;;;;;33.53;12.18;;;3.80;99.90;;;;;;4251054;27;20483;-85
2022/12/02 01:03:46;;;;;;;31.77;12.60;;;3.80;99.90;;;;;;4232733;28;20176;-85
2022/12/02 01:05:46;;;;;;;37.67;13.60;;;3.80;99.90;;;;;;4248761;27;20039;-85
2022/12/02 01:07:47;;;;;;;28.30;11.98;;;3.70;99.90;;;;;;4235540;28;20103;-86
2022/12/02 01:09:49;;;;;;;30.35;11.43;;;3.80;99.90;;;;;;4198676;28;20053;-85
2022/12/02 01:11:50;;;;;;;32.55;12.82;;;3.70;99.90;;;;;;4234130;28;20044;-85
2022/12/02 01:13:52;;;;;;;35.60;12.18;;;4.00;99.90;;;;;;4234725;28;20130;-85
2022/12/02 01:15:53;;;;;;;30.17;10.57;;;3.70;99.90;;;;;;4234522;28;20070;-85
2022/12/02 01:17:54;;;;;;;35.97;12.15;;;3.80;99.90;;;;;;4234479;28;20101;-85
2022/12/02 01:19:55;;;;;;;33.80;11.98;;;3.80;99.90;;;;;;4234445;27;20043;-85
2022/12/02 01:21:56;;;;;;;33.10;11.75;;;3.70;99.90;;;;;;4199510;28;20417;-85
2022/12/02 01:23:58;;;;;;;31.50;12.05;;;3.70;99.90;;;;;;4224236;28;20031;-84
2022/12/02 01:25:59;;;;;;;37.45;13.40;;;3.70;99.90;;;;;;4232593;28;20187;-84
2022/12/02 01:28:00;;;;;;;32.30;12.65;;;3.80;99.90;;;;;;4250297;27;20071;-84
2022/12/02 01:30:02;;;;;;;27.40;11.23;;;3.80;99.90;;;;;;4232194;28;20108;-84
2022/12/02 01:32:03;;;;;;;35.67;13.00;;;3.70;99.90;;;;;;4231438;28;20427;-85
2022/12/02 01:34:04;;;;;;;36.92;13.30;;;3.80;99.90;;;;;;4249980;27;20047;-85
2022/12/02 01:36:05;;;;;;;35.35;13.68;;;3.70;99.90;;;;;;4249881;27;20491;-85
2022/12/02 01:38:05;;;;;;;40.25;14.07;;;3.70;99.90;;;;;;4249695;27;20043;-85
2022/12/02 01:40:09;;;;;;;34.50;12.07;;;3.70;99.90;;;;;;4246334;27;20042;-85
2022/12/02 01:42:10;;;;;;;37.72;11.65;;;3.70;99.90;;;;;;4234820;28;20086;-85
2022/12/02 01:44:12;;;;;;;31.88;10.98;;;3.70;99.90;;;;;;4214381;28;20051;-85
2022/12/02 01:46:12;;;;;;;40.08;13.27;;;3.70;99.90;;;;;;4233170;28;20432;-85
2022/12/02 01:48:13;;;;;;;33.03;11.82;;;3.70;99.90;;;;;;4198058;28;20044;-85
2022/12/02 01:50:16;;;;;;;34.08;13.98;;;3.70;99.90;;;;;;4214759;28;20519;-85
2022/12/02 01:52:16;;;;;;;36.17;11.93;;;3.70;99.90;;;;;;4214307;28;20044;-85
2022/12/02 01:54:17;;;;;;;36.58;13.07;;;3.70;99.90;;;;;;4232794;28;20127;-85
2022/12/02 01:56:19;;;;;;;36.75;12.57;;;3.60;99.90;;;;;;4214428;28;20040;-86
2022/12/02 01:58:26;;;;;;;33.55;12.85;;;3.70;99.90;;;;;;4236980;27;20046;-85
2022/12/02 02:00:28;;;;;;;31.60;11.95;;;3.60;99.90;;;;;;4213837;28;20551;-85
2022/12/02 02:02:34;;;;;;;34.80;13.02;;;3.60;99.90;;;;;;4232556;28;20071;-85
2022/12/02 02:04:36;;;;;;;38.13;12.82;;;3.70;99.90;;;;;;4232950;28;20047;-84
2022/12/02 02:06:46;;;;;;;33.78;13.52;;;3.60;99.90;;;;;;4198061;28;20127;-84
2022/12/02 02:08:47;;;;;;;34.15;12.55;;;3.60;99.90;;;;;;4214899;28;20439;-84
2022/12/02 02:10:48;;;;;;;36.63;13.35;;;3.50;99.90;;;;;;4214648;28;20044;-85
2022/12/02 02:12:51;;;;;;;37.03;12.38;;;3.60;99.90;;;;;;4233035;28;20057;-85
2022/12/02 02:14:53;;;;;;;37.20;12.98;;;3.50;99.90;;;;;;4207915;28;20113;-84
2022/12/02 02:16:56;;;;;;;42.42;12.95;;;3.50;99.90;;;;;;4249333;27;20074;-85
2022/12/02 02:18:58;;;;;;;42.97;13.90;;;3.50;99.90;;;;;;4249761;27;20043;-85
2022/12/02 02:20:59;;;;;;;34.42;12.77;;;3.60;99.90;;;;;;4249425;27;20164;-85
2022/12/02 02:23:05;;;;;;;40.83;13.63;;;3.70;99.90;;;;;;4231084;28;20051;-85
2022/12/02 02:25:14;;;;;;;35.20;13.10;;;3.80;99.90;;;;;;4230547;28;20464;-84
2022/12/02 02:27:15;;;;;;;37.58;13.90;;;3.50;99.90;;;;;;4249983;27;20131;-85
2022/12/02 02:29:17;;;;;;;47.15;14.90;;;3.70;99.90;;;;;;4249672;27;20043;-85
2022/12/02 02:31:19;;;;;;;32.42;12.73;;;3.60;99.90;;;;;;4240298;27;20097;-85
2022/12/02 02:33:22;;;;;;;40.42;12.10;;;3.50;99.90;;;;;;4228976;28;20058;-85
2022/12/02 02:35:23;;;;;;;43.17;13.45;;;3.50;99.90;;;;;;4197271;28;20052;-85
2022/12/02 02:37:24;;;;;;;35.00;12.18;;;3.50;99.90;;;;;;4232364;28;20100;-85
2022/12/02 02:39:25;;;;;;;39.42;13.65;;;3.50;99.90;;;;;;4213760;28;20039;-84
2022/12/02 02:41:26;;;;;;;35.90;13.75;;;3.50;99.90;;;;;;4232233;28;20476;-85
2022/12/02 02:43:28;;;;;;;35.25;13.45;;;3.50;99.90;;;;;;4213898;28;20130;-85
2022/12/02 02:45:34;;;;;;;36.28;13.65;;;3.60;99.90;;;;;;4232138;28;20040;-85
2022/12/02 02:47:35;;;;;;;35.83;12.65;;;3.80;99.90;;;;;;4213809;28;20412;-85
2022/12/02 02:49:36;;;;;;;36.95;12.95;;;3.70;99.90;;;;;;4230389;28;20094;-85
2022/12/02 02:51:36;;;;;;;30.10;12.25;;;3.40;99.90;;;;;;4215328;28;20059;-85
2022/12/02 02:53:39;;;;;;;36.03;12.98;;;3.40;99.90;;;;;;4213331;28;20467;-85
2022/12/02 02:55:41;;;;;;;34.92;13.05;;;3.40;99.90;;;;;;4232122;28;20480;-85
2022/12/02 02:57:42;;;;;;;34.70;12.45;;;3.90;99.90;;;;;;4213654;28;20051;-85
2022/12/02 02:59:46;;;;;;;32.35;12.43;;;4.30;99.90;;;;;;4213889;28;20048;-85
2022/12/02 03:01:51;;;;;;;32.58;10.27;;;3.30;99.90;;;;;;4197043;28;20045;-85
2022/12/02 03:03:57;;;;;;;30.67;10.90;;;3.30;99.90;;;;;;4213708;28;20574;-85
2022/12/02 03:06:00;;;;;;;34.05;12.05;;;3.50;99.90;;;;;;4231883;28;20046;-85
2022/12/02 03:08:02;;;;;;;28.95;12.05;;;3.30;99.90;;;;;;4234699;27;20095;-84
2022/12/02 03:10:05;;;;;;;28.67;10.48;;;3.30;99.90;;;;;;4231945;28;20040;-85
2022/12/02 03:12:06;;;;;;;28.60;9.80;;;3.30;99.90;;;;;;4213868;28;20535;-85
2022/12/02 03:14:09;;;;;;;30.15;10.98;;;3.30;99.90;;;;;;4197173;28;20041;-84
2022/12/02 03:16:13;;;;;;;31.02;11.05;;;4.10;99.90;;;;;;4212978;28;20107;-85
2022/12/02 03:18:14;;;;;;;37.10;12.60;;;3.30;99.90;;;;;;4231579;28;20124;-85
2022/12/02 03:20:16;;;;;;;31.05;11.20;;;3.20;99.90;;;;;;4237559;27;20084;-83
2022/12/02 03:22:17;;;;;;;33.15;12.43;;;3.20;99.90;;;;;;4213579;28;20122;-84
2022/12/02 03:24:19;;;;;;;30.13;11.93;;;3.60;99.90;;;;;;4240727;27;20039;-84
2022/12/02 03:26:21;;;;;;;35.85;12.82;;;3.60;99.90;;;;;;4207857;28;20047;-85
2022/12/02 03:28:22;;;;;;;30.02;10.13;;;3.60;99.90;;;;;;4213487;28;20077;-84
2022/12/02 03:30:25;;;;;;;31.05;11.27;;;3.10;99.90;;;;;;4213191;28;20056;-84
2022/12/02 03:32:26;;;;;;;32.20;12.45;;;3.50;99.90;;;;;;4231776;28;20044;-84
2022/12/02 03:34:28;;;;;;;35.17;12.48;;;3.60;99.90;;;;;;4231592;28;20388;-85
2022/12/02 03:36:30;;;;;;;40.90;13.27;;;3.70;99.90;;;;;;4231442;28;20122;-85
2022/12/02 03:38:32;;;;;;;33.13;11.30;;;3.20;99.90;;;;;;4213151;28;20054;-85
2022/12/02 03:40:33;;;;;;;34.53;12.07;;;3.10;99.90;;;;;;4196630;28;20138;-85
2022/12/02 03:42:35;;;;;;;37.60;12.20;;;3.10;99.90;;;;;;4218589;28;20533;-85
2022/12/02 03:44:36;;;;;;;33.15;11.93;;;3.10;99.90;;;;;;4230235;28;20075;-85
2022/12/02 03:46:37;;;;;;;30.85;11.25;;;3.10;99.90;;;;;;4213693;28;20561;-86
2022/12/02 03:48:39;;;;;;;35.42;11.90;;;3.10;99.90;;;;;;4230015;28;20044;-86
2022/12/02 03:50:40;;;;;;;33.60;11.35;;;3.10;99.90;;;;;;4229899;28;20101;-85
2022/12/02 03:52:41;;;;;;;33.40;12.30;;;3.10;99.90;;;;;;4248302;28;20043;-85
2022/12/02 03:54:43;;;;;;;30.90;11.63;;;3.20;99.90;;;;;;4230575;28;20580;-85
2022/12/02 03:56:43;;;;;;;36.97;12.07;;;3.00;99.90;;;;;;4212932;28;20048;-86
2022/12/02 03:58:47;;;;;;;30.73;11.32;;;3.10;99.90;;;;;;4230285;28;20043;-85
2022/12/02 04:00:48;;;;;;;27.27;10.98;;;3.10;99.90;;;;;;4243739;28;20046;-86
2022/12/02 04:02:49;;;;;;;39.15;13.73;;;3.60;99.90;;;;;;4230310;28;20418;-85
2022/12/02 04:04:49;;;;;;;32.03;11.57;;;3.10;99.90;;;;;;4248144;28;20043;-85
2022/12/02 04:06:50;;;;;;;33.85;11.65;;;3.10;99.90;;;;;;4213989;28;20583;-86
2022/12/02 04:08:52;;;;;;;39.63;12.90;;;3.10;99.90;;;;;;4248196;28;20047;-86
2022/12/02 04:10:53;;;;;;;34.55;11.50;;;3.10;99.90;;;;;;4230681;28;20075;-85
2022/12/02 04:12:54;;;;;;;36.88;12.10;;;3.10;99.90;;;;;;4247513;28;20089;-85
2022/12/02 04:14:55;;;;;;;37.90;13.80;;;3.50;99.90;;;;;;4213554;28;20163;-85
2022/12/02 04:16:57;;;;;;;34.92;11.15;;;3.80;99.90;;;;;;4244044;28;20046;-85
2022/12/02 04:18:58;;;;;;;35.95;12.98;;;3.10;99.90;;;;;;4204109;28;20056;-85
2022/12/02 04:21:00;;;;;;;30.77;10.90;;;3.70;99.90;;;;;;4230447;28;20040;-86
2022/12/02 04:23:01;;;;;;;35.30;12.18;;;3.20;99.90;;;;;;4213188;28;20127;-85
2022/12/02 04:25:03;;;;;;;32.65;12.52;;;3.20;99.90;;;;;;4233832;28;20047;-85
2022/12/02 04:27:04;;;;;;;38.97;13.35;;;3.10;99.90;;;;;;4234163;28;20055;-85
2022/12/02 04:29:05;;;;;;;41.75;13.27;;;3.80;99.90;;;;;;4234087;28;20050;-85
2022/12/02 04:31:06;;;;;;;37.47;12.43;;;3.60;99.90;;;;;;4234231;28;20075;-85
2022/12/02 04:33:07;;;;;;;33.72;12.38;;;3.20;99.90;;;;;;4201181;28;20441;-85
2022/12/02 04:35:08;;;;;;;35.50;12.82;;;3.20;99.90;;;;;;4205519;28;20061;-85
2022/12/02 04:37:09;;;;;;;32.50;11.73;;;3.30;99.90;;;;;;4234524;28;20131;-86
2022/12/02 04:39:10;;;;;;;35.35;12.88;;;3.50;99.90;;;;;;4234383;28;20134;-85
2022/12/02 04:41:12;;;;;;;42.67;13.50;;;3.20;99.90;;;;;;4251904;27;20079;-85
2022/12/02 04:43:14;;;;;;;33.65;12.18;;;3.20;99.90;;;;;;4250930;27;20031;-85
2022/12/02 04:45:15;;;;;;;37.10;11.77;;;3.70;99.90;;;;;;4250622;27;20079;-85
2022/12/02 04:47:16;;;;;;;35.25;12.63;;;3.30;99.90;;;;;;4250611;27;20046;-85
2022/12/02 04:49:18;;;;;;;38.63;12.20;;;4.00;99.90;;;;;;4215490;28;20516;-85
2022/12/02 04:51:19;;;;;;;38.47;12.38;;;3.10;99.90;;;;;;4247054;27;20132;-85
2022/12/02 04:53:21;;;;;;;34.67;12.82;;;3.10;99.90;;;;;;4215679;28;20040;-85
2022/12/02 04:55:22;;;;;;;41.28;13.65;;;3.10;99.90;;;;;;4233638;28;20123;-85
2022/12/02 04:57:23;;;;;;;32.75;12.32;;;3.50;99.90;;;;;;4234096;28;20039;-85
2022/12/02 04:59:25;;;;;;;36.15;12.40;;;3.10;99.90;;;;;;4233570;28;20046;-85
2022/12/02 05:01:27;;;;;;;36.95;12.23;;;3.20;99.90;;;;;;4215653;28;20503;-85
2022/12/02 05:03:27;;;;;;;34.58;13.45;;;3.10;99.90;;;;;;4215736;28;20413;-85
2022/12/02 05:05:28;;;;;;;39.72;12.70;;;3.10;99.90;;;;;;4233142;28;20055;-86
2022/12/02 05:07:29;;;;;;;39.70;12.85;;;3.10;99.90;;;;;;4199099;28;20599;-87
2022/12/02 05:09:30;;;;;;;39.20;13.50;;;3.20;99.90;;;;;;4247005;27;20043;-85
2022/12/02 05:11:30;;;;;;;33.60;12.23;;;3.70;99.90;;;;;;4233105;28;20040;-85
2022/12/02 05:13:31;;;;;;;40.20;12.77;;;3.20;99.90;;;;;;4215963;28;20131;-85
2022/12/02 05:15:33;;;;;;;34.55;13.80;;;3.20;99.90;;;;;;4231702;28;20065;-84
2022/12/02 05:17:33;;;;;;;45.00;15.75;;;3.70;99.90;;;;;;4250673;27;20050;-85
2022/12/02 05:19:34;;;;;;;48.08;15.20;;;3.90;99.90;;;;;;4250725;27;20047;-84
2022/12/02 05:21:35;;;;;;;42.97;14.73;;;3.20;99.90;;;;;;4233489;27;20044;-84
2022/12/02 05:23:35;;;;;;;47.92;15.00;;;3.30;99.90;;;;;;4233374;28;20082;-85
2022/12/02 05:25:36;;;;;;;52.28;15.38;;;3.80;99.90;;;;;;4198345;28;20155;-85
2022/12/02 05:27:38;;;;;;;50.70;14.77;;;3.20;99.90;;;;;;4243878;27;20039;-84
2022/12/02 05:29:39;;;;;;;42.53;13.77;;;3.40;99.90;;;;;;4215261;28;20052;-85
2022/12/02 05:31:40;;;;;;;48.10;15.07;;;3.20;99.90;;;;;;4254343;27;20157;-85
2022/12/02 05:33:42;;;;;;;42.55;13.48;;;3.80;99.90;;;;;;4231742;28;20070;-85
2022/12/02 05:35:42;;;;;;;43.35;13.70;;;3.20;99.90;;;;;;4230825;28;20070;-85
2022/12/02 05:37:44;;;;;;;42.88;14.40;;;3.20;99.90;;;;;;4249756;27;20047;-85
2022/12/02 05:39:46;;;;;;;47.75;14.80;;;3.20;99.90;;;;;;4215006;28;20060;-84
2022/12/02 05:41:48;;;;;;;46.03;14.45;;;3.20;99.90;;;;;;4250165;27;20078;-86
2022/12/02 05:43:50;;;;;;;50.85;16.38;;;3.20;99.90;;;;;;4248854;27;20405;-85
2022/12/02 05:45:55;;;;;;;45.67;14.90;;;3.20;99.90;;;;;;4236516;27;20051;-85
2022/12/02 05:47:55;;;;;;;51.20;15.45;;;3.50;99.90;;;;;;4232921;28;20079;-85
2022/12/02 05:49:59;;;;;;;52.92;15.63;;;3.40;99.90;;;;;;4232937;28;20177;-85
2022/12/02 05:52:06;;;;;;;45.58;14.82;;;3.20;99.90;;;;;;4233018;28;20071;-85
2022/12/02 05:54:13;;;;;;;38.83;13.18;;;3.20;99.90;;;;;;4233393;28;20047;-86
2022/12/02 05:56:24;;;;;;;46.30;14.32;;;3.20;99.90;;;;;;4214896;28;20052;-85
2022/12/02 05:58:25;;;;;;;42.35;14.52;;;3.20;99.90;;;;;;4233111;28;20518;-85
2022/12/02 06:00:26;;;;;;;41.17;13.98;;;3.30;99.90;;;;;;4215636;28;20043;-86
2022/12/02 06:02:36;;;;;;;44.45;15.55;;;3.10;99.90;;;;;;4244673;27;20036;-86
2022/12/02 06:04:37;;;;;;;42.05;12.68;;;3.10;99.90;;;;;;4215075;28;20119;-85
2022/12/02 06:06:38;;;;;;;45.53;15.50;;;3.80;99.90;;;;;;4233399;28;20408;-85
2022/12/02 06:08:40;;;;;;;40.42;13.88;;;3.10;99.90;;;;;;4198886;28;20044;-84
2022/12/02 06:10:45;;;;;;;46.97;14.68;;;3.30;99.90;;;;;;4237578;28;20047;-85
2022/12/02 06:12:46;;;;;;;40.55;14.57;;;3.80;99.90;;;;;;4236761;28;20113;-86
2022/12/02 06:14:53;;;;;;;38.97;13.82;;;3.30;99.90;;;;;;4217963;28;20056;-85
2022/12/02 06:16:59;;;;;;;49.47;16.60;;;3.10;99.90;;;;;;4236782;28;20054;-84
2022/12/02 06:19:18;;;;;;;45.45;14.23;;;3.10;99.90;;;;;;4200827;28;20048;-85
2022/12/02 06:21:21;;;;;;;41.20;14.10;;;3.10;99.90;;;;;;4210734;28;20048;-85
2022/12/02 06:23:25;;;;;;;48.33;13.80;;;3.20;99.90;;;;;;4234517;28;20108;-85
2022/12/02 06:25:30;;;;;;;43.30;14.32;;;3.20;99.90;;;;;;4214679;28;20428;-86
2022/12/02 06:27:32;;;;;;;39.60;12.98;;;3.60;99.90;;;;;;4214649;28;20048;-86
2022/12/02 06:29:34;;;;;;;44.58;13.50;;;3.10;99.90;;;;;;4232297;28;20591;-86
2022/12/02 06:31:40;;;;;;;42.22;13.15;;;3.80;99.90;;;;;;4214406;28;20411;-86
2022/12/02 06:33:44;;;;;;;44.33;14.65;;;3.60;99.90;;;;;;4232100;28;20393;-86
2022/12/02 06:35:45;;;;;;;39.47;13.02;;;3.10;99.90;;;;;;4214553;28;20093;-85
2022/12/02 06:37:46;;;;;;;47.65;15.30;;;3.20;99.90;;;;;;4200588;28;20091;-84
2022/12/02 06:39:50;;;;;;;40.38;14.45;;;3.10;99.90;;;;;;4213704;28;20463;-84
2022/12/02 06:41:52;;;;;;;44.75;13.45;;;3.60;99.90;;;;;;4214378;28;20052;-84
2022/12/02 06:46:21;;;;;;;39.45;14.55;;;3.00;99.90;;;;;;4233207;28;20052;-86
2022/12/02 06:48:26;;;;;;;42.08;14.15;;;3.00;99.90;;;;;;4209965;28;20052;-85
2022/12/02 06:50:50;;;;;;;41.80;13.57;;;3.50;99.90;;;;;;4235546;27;20523;-85
2022/12/02 06:52:54;;;;;;;43.55;14.20;;;3.00;99.90;;;;;;4215330;28;20052;-85
2022/12/02 06:54:55;;;;;;;38.30;12.05;;;3.00;99.90;;;;;;4218171;28;20520;-86
2022/12/02 06:56:59;;;;;;;46.28;15.60;;;3.10;99.90;;;;;;4251544;27;20054;-85
2022/12/02 06:59:03;;;;;;;42.08;13.80;;;3.00;99.90;;;;;;4231778;28;20048;-86
2022/12/02 07:01:06;;;;;;;40.38;13.73;;;3.00;99.90;;;;;;4249621;27;20066;-85
2022/12/02 07:03:32;;;;;;;42.28;13.27;;;3.20;99.90;;;;;;4249326;27;20483;-85
2022/12/02 07:05:33;;;;;;;47.22;14.45;;;3.00;99.90;;;;;;4218125;28;20060;-84
2022/12/02 07:07:35;;;;;;;46.38;14.77;;;3.00;99.90;;;;;;4214720;28;20585;-84
2022/12/02 07:09:47;;;;;;;42.90;15.15;;;3.30;99.90;;;;;;4214135;28;20075;-85
2022/12/02 07:11:50;;;;;;;46.40;16.10;;;3.30;99.90;;;;;;4213922;28;20519;-84
2022/12/02 07:13:51;;;;;;;43.85;15.02;;;3.10;99.90;;;;;;4232152;28;20055;-85
2022/12/02 07:15:51;;;;;;;43.45;14.13;;;3.20;99.90;;;;;;4241677;27;20035;-85
2022/12/02 07:17:56;;;;;;;57.20;15.57;;;3.10;99.90;;;;;;4213908;28;20048;-84
2022/12/02 07:20:28;;;;;;;43.67;13.82;;;3.10;99.90;;;;;;4249098;27;20078;-85
2022/12/02 07:22:43;;;;;;;52.30;14.40;;;3.10;99.90;;;;;;4242394;27;20051;-85
2022/12/02 07:25:10;;;;;;;46.33;14.00;;;3.10;99.90;;;;;;4230979;28;20052;-85
2022/12/02 07:27:20;;;;;;;47.03;13.57;;;3.10;99.90;;;;;;4222147;28;20051;-85
2022/12/02 07:29:29;;;;;;;45.78;16.08;;;3.10;99.90;;;;;;4230704;28;20946;-85
2022/12/02 07:31:31;;;;;;;47.30;13.93;;;3.10;99.90;;;;;;4228657;28;20052;-85
2022/12/02 07:33:32;;;;;;;40.92;14.43;;;3.00;99.90;;;;;;4247492;27;20046;-85
2022/12/02 07:35:32;;;;;;;48.30;15.13;;;3.10;99.90;;;;;;4228891;28;20536;-85
2022/12/02 07:37:33;;;;;;;43.83;13.88;;;3.00;99.90;;;;;;4215932;28;20055;-86
2022/12/02 07:39:34;;;;;;;48.67;16.08;;;3.00;99.90;;;;;;4215868;28;20139;-85
2022/12/02 07:41:35;;;;;;;44.20;14.23;;;3.00;99.90;;;;;;4239490;27;20035;-84
2022/12/02 07:43:35;;;;;;;47.05;16.08;;;3.70;99.90;;;;;;4205682;28;20040;-84
2022/12/02 07:45:36;;;;;;;44.03;13.65;;;3.00;99.90;;;;;;4246740;27;20091;-84
2022/12/02 07:47:38;;;;;;;47.78;16.42;;;3.00;99.90;;;;;;4226296;28;20420;-85
2022/12/02 07:49:39;;;;;;;41.45;13.82;;;3.00;99.90;;;;;;4214381;28;20136;-85
2022/12/02 07:51:40;;;;;;;48.33;14.52;;;3.00;99.90;;;;;;4215602;28;20044;-85
2022/12/02 07:53:40;;;;;;;44.83;14.73;;;3.00;99.90;;;;;;4214986;28;20047;-85
2022/12/02 07:55:41;;;;;;;46.17;15.65;;;2.20;99.90;;;;;;4227260;28;20445;-86
2022/12/02 07:57:42;;;;;;;54.17;16.48;;;3.00;99.90;;;;;;4214342;28;20086;-86
2022/12/02 07:59:43;;;;;;;47.80;15.73;;;3.00;99.90;;;;;;4221639;28;20054;-86
2022/12/02 08:01:44;;;;;;;47.72;16.20;;;2.90;99.90;;;;;;4223065;28;20091;-87
2022/12/02 08:03:45;;;;;;;51.22;16.30;;;2.90;99.90;;;;;;4224436;28;20117;-85
2022/12/02 08:05:46;;;;;;;45.83;14.77;;;2.90;99.90;;;;;;4235136;28;20059;-85
2022/12/02 08:07:48;;;;;;;44.70;14.85;;;3.00;99.90;;;;;;4224605;28;20392;-86
2022/12/02 08:09:48;;;;;;;42.53;14.60;;;2.90;99.90;;;;;;4217739;28;20047;-85
2022/12/02 08:11:49;;;;;;;39.78;13.65;;;2.90;99.90;;;;;;4224300;28;20048;-85
2022/12/02 08:13:51;;;;;;;47.55;14.93;;;2.80;99.90;;;;;;4231251;28;20043;-86
2022/12/02 08:15:52;;;;;;;46.72;15.00;;;2.80;99.90;;;;;;4231734;28;20047;-86
2022/12/02 08:17:55;;;;;;;40.78;12.25;;;2.80;99.90;;;;;;4218233;28;20059;-86
2022/12/02 08:19:57;;;;;;;45.97;14.13;;;2.80;99.90;;;;;;4231170;28;20103;-85
2022/12/02 08:21:58;;;;;;;40.38;12.63;;;3.10;99.90;;;;;;4220598;28;20054;-85
2022/12/02 08:24:00;;;;;;;36.60;13.13;;;2.70;99.90;;;;;;4234303;28;20043;-84
2022/12/02 08:26:03;;;;;;;40.72;12.68;;;2.70;99.90;;;;;;4228239;28;20436;-86
2022/12/02 08:28:03;;;;;;;33.58;12.25;;;2.70;99.90;;;;;;4220067;28;20518;-85
2022/12/02 08:30:08;;;;;;;36.28;11.45;;;2.70;99.90;;;;;;4222473;28;20040;-85
2022/12/02 08:32:09;;;;;;;32.30;11.00;;;2.70;99.90;;;;;;4234227;28;20461;-85
2022/12/02 08:34:09;;;;;;;35.60;11.68;;;2.70;99.90;;;;;;4217530;28;20040;-85
2022/12/02 08:36:10;;;;;;;36.88;13.18;;;2.60;99.90;;;;;;4232014;28;20044;-85
2022/12/02 08:38:12;;;;;;;34.15;11.82;;;2.60;99.90;;;;;;4221612;28;20051;-85
2022/12/02 08:40:14;;;;;;;32.25;11.40;;;3.30;99.90;;;;;;4236157;28;20043;-86
2022/12/02 08:42:15;;;;;;;35.72;12.57;;;3.00;99.90;;;;;;4233714;28;20040;-85
2022/12/02 08:44:16;;;;;;;40.35;13.30;;;3.10;99.90;;;;;;4218578;28;20047;-86
2022/12/02 08:46:18;;;;;;;37.53;12.50;;;2.50;99.90;;;;;;4232251;28;20040;-85
2022/12/02 08:48:20;;;;;;;37.83;12.00;;;2.90;99.90;;;;;;4231890;28;20052;-85
2022/12/02 08:50:21;;;;;;;31.45;12.93;;;3.40;99.90;;;;;;4229405;28;20116;-86
2022/12/02 08:52:21;;;;;;;33.65;11.93;;;2.40;99.90;;;;;;4229513;28;20376;-85
2022/12/02 08:54:22;;;;;;;35.65;11.40;;;2.90;99.90;;;;;;4233999;28;20056;-85
2022/12/02 08:56:25;;;;;;;35.92;12.48;;;2.40;99.90;;;;;;4235395;28;20063;-85
2022/12/02 08:58:26;;;;;;;35.97;10.90;;;2.40;99.90;;;;;;4218977;28;20107;-85
2022/12/02 09:00:27;;;;;;;38.75;11.88;;;2.40;99.90;;;;;;4216759;28;20082;-84
2022/12/02 09:02:29;;;;;;;35.72;11.50;;;2.40;99.90;;;;;;4230721;28;20145;-85
2022/12/02 09:04:31;;;;;;;31.38;11.38;;;2.40;99.90;;;;;;4247639;27;20050;-84
2022/12/02 09:06:34;;;;;;;37.90;12.57;;;2.40;99.90;;;;;;4234126;28;20039;-85
2022/12/02 09:08:36;;;;;;;34.60;11.52;;;2.40;99.90;;;;;;4213554;28;20090;-86
2022/12/02 09:10:37;;;;;;;32.83;10.68;;;2.40;99.90;;;;;;4240419;27;20525;-86
2022/12/02 09:12:38;;;;;;;35.28;12.63;;;3.00;99.90;;;;;;4252717;27;20039;-86
2022/12/02 09:14:39;;;;;;;42.97;12.23;;;2.40;99.90;;;;;;4235610;28;20088;-85
2022/12/02 09:16:40;;;;;;;35.03;12.60;;;2.40;99.90;;;;;;4205887;28;20572;-86
2022/12/02 09:18:41;;;;;;;33.33;10.77;;;2.40;99.90;;;;;;4216827;28;20059;-85
2022/12/02 09:20:42;;;;;;;40.53;12.90;;;2.80;99.90;;;;;;4235018;28;20039;-86
2022/12/02 09:22:47;;;;;;;45.03;12.52;;;2.40;99.90;;;;;;4246961;27;20388;-86
2022/12/02 09:24:48;;;;;;;39.10;13.85;;;3.00;99.90;;;;;;4251696;27;20075;-85
2022/12/02 09:26:49;;;;;;;48.72;13.63;;;2.50;99.90;;;;;;4215412;28;20048;-85
2022/12/02 09:28:50;;;;;;;36.42;12.77;;;2.50;99.90;;;;;;4220720;28;20043;-85
2022/12/02 09:30:53;;;;;;;37.92;11.88;;;2.50;99.90;;;;;;4236198;28;20052;-85
2022/12/02 09:32:55;;;;;;;42.33;13.38;;;2.50;99.90;;;;;;4236226;28;20043;-85
2022/12/02 09:34:57;;;;;;;43.00;13.45;;;2.80;99.90;;;;;;4216375;28;20126;-85
2022/12/02 09:37:05;;;;;;;40.38;13.10;;;2.50;99.90;;;;;;4200307;28;20128;-85
2022/12/02 09:39:05;;;;;;;33.97;11.15;;;2.50;99.90;;;;;;4203536;28;20052;-84
2022/12/02 09:41:07;;;;;;;39.50;12.57;;;2.60;99.90;;;;;;4253683;27;20046;-84
2022/12/02 09:43:09;;;;;;;42.63;13.80;;;2.60;99.90;;;;;;4219467;28;20052;-84
2022/12/02 09:45:11;;;;;;;40.75;13.35;;;2.60;99.90;;;;;;4200508;28;20048;-84
2022/12/02 09:47:15;;;;;;;40.97;12.40;;;2.70;99.90;;;;;;4235628;28;20080;-85
2022/12/02 09:49:16;;;;;;;35.78;12.48;;;2.70;99.90;;;;;;4236203;28;20508;-85
2022/12/02 09:51:17;;;;;;;34.20;12.57;;;2.70;99.90;;;;;;4239726;28;20047;-86
2022/12/02 09:53:19;;;;;;;40.53;13.77;;;2.80;99.90;;;;;;4217219;28;20035;-86
2022/12/02 09:55:21;;;;;;;44.95;13.07;;;3.60;99.90;;;;;;4219861;28;20496;-84
2022/12/02 09:57:29;;;;;;;40.08;13.05;;;2.80;99.90;;;;;;4234427;28;20047;-85
2022/12/02 09:59:32;;;;;;;42.38;13.45;;;2.80;99.90;;;;;;4252800;27;20039;-85
2022/12/02 10:01:44;;;;;;;33.80;10.80;;;2.80;99.90;;;;;;4252513;27;20120;-85
2022/12/02 10:03:49;;;;;;;42.88;13.05;;;2.90;99.90;;;;;;4252048;27;20039;-86
2022/12/02 10:05:50;;;;;;;35.22;10.85;;;2.90;99.90;;;;;;4251576;27;20047;-85
2022/12/02 10:07:55;;;;;;;40.70;11.95;;;2.40;99.90;;;;;;4252563;27;20120;-85
2022/12/02 10:09:57;;;;;;;40.60;13.43;;;3.10;99.90;;;;;;4252713;27;20070;-85
2022/12/02 10:11:59;;;;;;;36.55;12.57;;;3.20;99.90;;;;;;4217362;28;20138;-85
2022/12/02 10:14:02;;;;;;;37.00;13.63;;;3.10;99.90;;;;;;4233931;28;20054;-86
2022/12/02 10:16:11;;;;;;;38.75;12.63;;;3.60;99.90;;;;;;4233211;28;20069;-85
2022/12/02 10:18:16;;;;;;;33.58;12.80;;;2.90;99.90;;;;;;4233600;28;20135;-85
2022/12/02 10:20:23;;;;;;;34.83;12.23;;;3.40;99.90;;;;;;4251736;27;20043;-86
2022/12/02 10:22:24;;;;;;;37.72;12.07;;;3.00;99.90;;;;;;4216686;28;20058;-85
2022/12/02 10:24:36;;;;;;;37.00;12.73;;;3.00;99.90;;;;;;4252372;27;20546;-86
2022/12/02 10:26:42;;;;;;;35.30;12.98;;;3.00;99.90;;;;;;4250833;27;20035;-86
2022/12/02 10:29:02;;;;;;;38.15;11.75;;;2.90;99.90;;;;;;4215555;28;20155;-85
2022/12/02 10:31:18;;;;;;;34.92;13.52;;;3.00;99.90;;;;;;4216601;28;20420;-85
2022/12/02 10:33:24;;;;;;;39.22;12.52;;;2.60;99.90;;;;;;4251758;27;20050;-85
2022/12/02 10:35:41;;;;;;;35.83;12.90;;;3.00;99.90;;;;;;4233749;28;20510;-85